sensor_id;sensor_type;location;lat;lon;timestamp;pressure;altitude;pressure_sealevel;temperature;humidity
40788;BME280;26497;52.494;7.546;2023-03-04T00:01:56;101808.41;;;10.60;52.49
40788;BME280;26497;52.494;7.546;2023-03-04T00:04:23;101814.78;;;10.73;52.51
40788;BME280;26497;52.494;7.546;2023-03-04T00:06:50;101807.84;;;10.78;52.43
40788;BME280;26497;52.494;7.546;2023-03-04T00:09:17;101810.59;;;10.86;52.23
40788;BME280;26497;52.494;7.546;2023-03-04T00:11:46;101814.03;;;10.82;52.02
40788;BME280;26497;52.494;7.546;2023-03-04T00:14:13;101810.53;;;10.83;52.05
40788;BME280;26497;52.494;7.546;2023-03-04T00:16:40;101809.16;;;11.05;51.56
40788;BME280;26497;52.494;7.546;2023-03-04T00:19:09;101811.13;;;11.18;50.95
40788;BME280;26497;52.494;7.546;2023-03-04T00:21:36;101813.63;;;11.11;50.98
40788;BME280;26497;52.494;7.546;2023-03-04T00:24:03;101814.22;;;10.93;51.50
40788;BME280;26497;52.494;7.546;2023-03-04T00:26:31;101811.28;;;10.74;51.60
40788;BME280;26497;52.494;7.546;2023-03-04T00:28:59;101808.09;;;10.94;51.24
40788;BME280;26497;52.494;7.546;2023-03-04T00:31:26;101802.91;;;11.01;50.99
40788;BME280;26497;52.494;7.546;2023-03-04T00:33:53;101806.63;;;11.13;50.81
40788;BME280;26497;52.494;7.546;2023-03-04T00:36:20;101805.75;;;11.12;50.69
40788;BME280;26497;52.494;7.546;2023-03-04T00:38:47;101805.94;;;11.25;50.28
40788;BME280;26497;52.494;7.546;2023-03-04T00:41:14;101802.28;;;11.16;50.61
40788;BME280;26497;52.494;7.546;2023-03-04T00:43:41;101799.47;;;11.04;51.03
40788;BME280;26497;52.494;7.546;2023-03-04T00:46:10;101798.56;;;11.03;50.91
40788;BME280;26497;52.494;7.546;2023-03-04T00:48:37;101797.69;;;11.03;51.01
40788;BME280;26497;52.494;7.546;2023-03-04T00:51:05;101803.63;;;10.91;51.54
40788;BME280;26497;52.494;7.546;2023-03-04T00:53:32;101799.16;;;10.85;51.58
40788;BME280;26497;52.494;7.546;2023-03-04T00:55:59;101796.63;;;10.91;51.53
40788;BME280;26497;52.494;7.546;2023-03-04T00:58:26;101801.19;;;11.02;51.02
40788;BME280;26497;52.494;7.546;2023-03-04T01:00:53;101804.84;;;11.10;50.65
40788;BME280;26497;52.494;7.546;2023-03-04T01:03:22;101795.84;;;10.99;50.91
40788;BME280;26497;52.494;7.546;2023-03-04T01:05:49;101791.34;;;10.91;51.29
40788;BME280;26497;52.494;7.546;2023-03-04T01:08:16;101794.94;;;10.97;51.42
40788;BME280;26497;52.494;7.546;2023-03-04T01:10:43;101798.03;;;10.71;51.82
40788;BME280;26497;52.494;7.546;2023-03-04T01:13:10;101792.09;;;10.84;51.18
40788;BME280;26497;52.494;7.546;2023-03-04T01:15:37;101788.97;;;11.09;49.82
40788;BME280;26497;52.494;7.546;2023-03-04T01:18:04;101794.25;;;11.09;49.83
40788;BME280;26497;52.494;7.546;2023-03-04T01:20:33;101789.75;;;11.03;49.75
40788;BME280;26497;52.494;7.546;2023-03-04T01:23:00;101785.09;;;10.86;50.15
40788;BME280;26497;52.494;7.546;2023-03-04T01:25:27;101786.94;;;10.92;50.68
40788;BME280;26497;52.494;7.546;2023-03-04T01:27:54;101779.88;;;10.91;50.83
40788;BME280;26497;52.494;7.546;2023-03-04T01:30:21;101770.56;;;10.59;51.65
40788;BME280;26497;52.494;7.546;2023-03-04T01:32:49;101775.16;;;10.71;51.20
40788;BME280;26497;52.494;7.546;2023-03-04T01:35:16;101768.50;;;10.95;50.28
40788;BME280;26497;52.494;7.546;2023-03-04T01:37:44;101765.00;;;10.96;50.35
40788;BME280;26497;52.494;7.546;2023-03-04T01:40:13;101762.34;;;10.95;50.28
40788;BME280;26497;52.494;7.546;2023-03-04T01:42:40;101769.38;;;10.93;50.66
40788;BME280;26497;52.494;7.546;2023-03-04T01:45:12;101761.59;;;11.03;50.36
40788;BME280;26497;52.494;7.546;2023-03-04T01:47:40;101756.34;;;11.05;50.16
40788;BME280;26497;52.494;7.546;2023-03-04T01:50:20;101758.97;;;11.03;49.94
40788;BME280;26497;52.494;7.546;2023-03-04T01:52:49;101752.41;;;10.78;50.63
40788;BME280;26497;52.494;7.546;2023-03-04T01:55:18;101747.19;;;10.83;50.90
40788;BME280;26497;52.494;7.546;2023-03-04T01:57:47;101753.53;;;10.94;50.82
40788;BME280;26497;52.494;7.546;2023-03-04T02:00:24;101745.84;;;11.08;50.41
40788;BME280;26497;52.494;7.546;2023-03-04T02:02:56;101748.53;;;11.11;50.46
40788;BME280;26497;52.494;7.546;2023-03-04T02:05:24;101739.63;;;11.04;50.48
40788;BME280;26497;52.494;7.546;2023-03-04T02:07:54;101732.00;;;11.26;49.64
40788;BME280;26497;52.494;7.546;2023-03-04T02:10:22;101731.75;;;11.06;50.32
40788;BME280;26497;52.494;7.546;2023-03-04T02:12:49;101731.50;;;10.92;50.87
40788;BME280;26497;52.494;7.546;2023-03-04T02:15:17;101735.06;;;10.94;50.75
40788;BME280;26497;52.494;7.546;2023-03-04T02:17:44;101737.84;;;11.02;50.58
40788;BME280;26497;52.494;7.546;2023-03-04T02:20:32;101737.50;;;10.80;51.38
40788;BME280;26497;52.494;7.546;2023-03-04T02:23:10;101730.41;;;10.76;51.68
40788;BME280;26497;52.494;7.546;2023-03-04T02:25:46;101735.72;;;10.79;52.09
40788;BME280;26497;52.494;7.546;2023-03-04T02:28:16;101727.91;;;10.85;51.91
40788;BME280;26497;52.494;7.546;2023-03-04T02:30:43;101729.63;;;10.83;52.07
40788;BME280;26497;52.494;7.546;2023-03-04T02:33:16;101714.91;;;10.99;51.88
40788;BME280;26497;52.494;7.546;2023-03-04T02:35:45;101725.53;;;11.04;51.60
40788;BME280;26497;52.494;7.546;2023-03-04T02:38:12;101720.72;;;10.76;52.43
40788;BME280;26497;52.494;7.546;2023-03-04T02:40:42;101719.75;;;10.70;52.64
40788;BME280;26497;52.494;7.546;2023-03-04T02:43:11;101724.91;;;10.64;52.62
40788;BME280;26497;52.494;7.546;2023-03-04T02:45:43;101709.13;;;10.67;52.85
40788;BME280;26497;52.494;7.546;2023-03-04T02:48:12;101714.31;;;10.59;52.98
40788;BME280;26497;52.494;7.546;2023-03-04T02:50:43;101724.66;;;10.48;53.18
40788;BME280;26497;52.494;7.546;2023-03-04T02:53:11;101709.13;;;10.67;52.74
40788;BME280;26497;52.494;7.546;2023-03-04T02:55:38;101710.81;;;10.60;52.77
40788;BME280;26497;52.494;7.546;2023-03-04T02:58:07;101704.22;;;10.38;52.94
40788;BME280;26497;52.494;7.546;2023-03-04T03:00:34;101694.69;;;10.43;53.35
40788;BME280;26497;52.494;7.546;2023-03-04T03:03:04;101694.63;;;10.40;53.16
40788;BME280;26497;52.494;7.546;2023-03-04T03:05:33;101699.66;;;10.26;53.96
40788;BME280;26497;52.494;7.546;2023-03-04T03:08:00;101697.00;;;10.26;54.23
40788;BME280;26497;52.494;7.546;2023-03-04T03:10:27;101699.47;;;10.16;54.63
40788;BME280;26497;52.494;7.546;2023-03-04T03:12:54;101699.38;;;10.12;54.65
40788;BME280;26497;52.494;7.546;2023-03-04T03:15:21;101696.69;;;10.09;55.32
40788;BME280;26497;52.494;7.546;2023-03-04T03:17:49;101694.38;;;10.27;54.77
40788;BME280;26497;52.494;7.546;2023-03-04T03:20:18;101692.09;;;10.44;54.44
40788;BME280;26497;52.494;7.546;2023-03-04T03:22:45;101696.31;;;10.36;54.30
40788;BME280;26497;52.494;7.546;2023-03-04T03:25:13;101696.22;;;10.31;54.50
40788;BME280;26497;52.494;7.546;2023-03-04T03:27:41;101691.84;;;10.32;54.45
40788;BME280;26497;52.494;7.546;2023-03-04T03:30:11;101688.03;;;10.16;54.88
40788;BME280;26497;52.494;7.546;2023-03-04T03:32:39;101685.91;;;9.95;56.02
40788;BME280;26497;52.494;7.546;2023-03-04T03:35:07;101693.56;;;10.31;55.27
40788;BME280;26497;52.494;7.546;2023-03-04T03:37:35;101679.94;;;10.54;54.41
40788;BME280;26497;52.494;7.546;2023-03-04T03:40:03;101682.50;;;10.51;54.70
40788;BME280;26497;52.494;7.546;2023-03-04T03:42:31;101677.22;;;10.50;55.31
40788;BME280;26497;52.494;7.546;2023-03-04T03:44:58;101687.53;;;10.37;55.35
40788;BME280;26497;52.494;7.546;2023-03-04T03:47:25;101678.16;;;10.53;54.93
40788;BME280;26497;52.494;7.546;2023-03-04T03:49:52;101682.50;;;10.51;55.10
40788;BME280;26497;52.494;7.546;2023-03-04T03:52:19;101678.97;;;10.49;55.63
40788;BME280;26497;52.494;7.546;2023-03-04T03:54:48;101678.19;;;10.56;55.45
40788;BME280;26497;52.494;7.546;2023-03-04T03:57:15;101676.22;;;10.43;56.22
40788;BME280;26497;52.494;7.546;2023-03-04T03:59:42;101680.84;;;10.56;55.89
40788;BME280;26497;52.494;7.546;2023-03-04T04:02:09;101678.41;;;10.69;55.48
40788;BME280;26497;52.494;7.546;2023-03-04T04:04:36;101673.94;;;10.65;55.58
40788;BME280;26497;52.494;7.546;2023-03-04T04:07:03;101669.63;;;10.70;55.24
40788;BME280;26497;52.494;7.546;2023-03-04T04:09:30;101669.53;;;10.64;55.65
40788;BME280;26497;52.494;7.546;2023-03-04T04:11:59;101672.97;;;10.61;55.61
40788;BME280;26497;52.494;7.546;2023-03-04T04:14:26;101665.91;;;10.58;55.80
40788;BME280;26497;52.494;7.546;2023-03-04T04:16:53;101667.59;;;10.52;55.98
40788;BME280;26497;52.494;7.546;2023-03-04T04:19:20;101668.06;;;10.30;56.56
40788;BME280;26497;52.494;7.546;2023-03-04T04:21:47;101667.81;;;10.15;57.35
40788;BME280;26497;52.494;7.546;2023-03-04T04:24:15;101659.34;;;10.35;56.79
40788;BME280;26497;52.494;7.546;2023-03-04T04:26:42;101663.66;;;10.28;57.09
40788;BME280;26497;52.494;7.546;2023-03-04T04:29:13;101665.91;;;10.08;57.66
40788;BME280;26497;52.494;7.546;2023-03-04T04:31:41;101663.28;;;10.06;57.75
40788;BME280;26497;52.494;7.546;2023-03-04T04:34:08;101660.50;;;9.98;58.42
40788;BME280;26497;52.494;7.546;2023-03-04T04:36:35;101663.19;;;10.01;58.29
40788;BME280;26497;52.494;7.546;2023-03-04T04:39:03;101662.19;;;9.93;58.54
40788;BME280;26497;52.494;7.546;2023-03-04T04:41:35;101669.25;;;9.97;58.13
40788;BME280;26497;52.494;7.546;2023-03-04T04:44:03;101661.97;;;9.81;58.27
40788;BME280;26497;52.494;7.546;2023-03-04T04:46:31;101665.63;;;9.89;58.29
40788;BME280;26497;52.494;7.546;2023-03-04T04:48:59;101667.34;;;9.87;58.53
40788;BME280;26497;52.494;7.546;2023-03-04T04:51:26;101655.38;;;10.06;57.79
40788;BME280;26497;52.494;7.546;2023-03-04T04:53:53;101662.41;;;10.07;57.49
40788;BME280;26497;52.494;7.546;2023-03-04T04:56:23;101668.44;;;10.00;57.92
40788;BME280;26497;52.494;7.546;2023-03-04T04:58:52;101671.75;;;9.89;57.84
40788;BME280;26497;52.494;7.546;2023-03-04T05:01:20;101668.94;;;9.79;58.62
40788;BME280;26497;52.494;7.546;2023-03-04T05:03:49;101666.44;;;9.86;58.58
40788;BME280;26497;52.494;7.546;2023-03-04T05:06:18;101668.94;;;9.80;59.03
40788;BME280;26497;52.494;7.546;2023-03-04T05:08:46;101668.81;;;9.72;59.54
40788;BME280;26497;52.494;7.546;2023-03-04T05:11:13;101664.41;;;9.71;59.42
40788;BME280;26497;52.494;7.546;2023-03-04T05:13:41;101657.25;;;9.66;59.37
40788;BME280;26497;52.494;7.546;2023-03-04T05:16:08;101663.09;;;9.49;60.54
40788;BME280;26497;52.494;7.546;2023-03-04T05:18:36;101660.25;;;9.40;60.97
40788;BME280;26497;52.494;7.546;2023-03-04T05:21:05;101660.44;;;9.49;61.18
40788;BME280;26497;52.494;7.546;2023-03-04T05:23:35;101653.94;;;9.30;62.00
40788;BME280;26497;52.494;7.546;2023-03-04T05:26:04;101656.59;;;9.32;63.04
40788;BME280;26497;52.494;7.546;2023-03-04T05:28:33;101662.28;;;9.52;61.93
40788;BME280;26497;52.494;7.546;2023-03-04T05:31:00;101656.47;;;9.70;61.64
40788;BME280;26497;52.494;7.546;2023-03-04T05:33:27;101657.25;;;9.66;61.55
40788;BME280;26497;52.494;7.546;2023-03-04T05:35:55;101651.97;;;9.64;61.79
40788;BME280;26497;52.494;7.546;2023-03-04T05:38:23;101643.13;;;9.61;61.95
40788;BME280;26497;52.494;7.546;2023-03-04T05:40:56;101644.34;;;9.34;63.05
40788;BME280;26497;52.494;7.546;2023-03-04T05:43:24;101641.63;;;9.30;63.23
40788;BME280;26497;52.494;7.546;2023-03-04T05:45:52;101644.84;;;9.14;64.07
40788;BME280;26497;52.494;7.546;2023-03-04T05:48:20;101641.31;;;9.13;64.17
40788;BME280;26497;52.494;7.546;2023-03-04T05:50:51;101641.31;;;9.13;64.67
40788;BME280;26497;52.494;7.546;2023-03-04T05:53:18;101645.00;;;9.22;64.32
40788;BME280;26497;52.494;7.546;2023-03-04T05:55:47;101644.19;;;9.26;64.36
40788;BME280;26497;52.494;7.546;2023-03-04T05:58:15;101636.31;;;9.26;63.80
40788;BME280;26497;52.494;7.546;2023-03-04T06:00:42;101637.34;;;9.36;63.56
40788;BME280;26497;52.494;7.546;2023-03-04T06:03:14;101640.84;;;9.35;63.47
40788;BME280;26497;52.494;7.546;2023-03-04T06:05:42;101640.97;;;9.39;63.42
40788;BME280;26497;52.494;7.546;2023-03-04T06:08:10;101633.59;;;9.21;63.58
40788;BME280;26497;52.494;7.546;2023-03-04T06:10:39;101635.84;;;9.04;64.58
40788;BME280;26497;52.494;7.546;2023-03-04T06:13:08;101632.47;;;9.10;64.71
40788;BME280;26497;52.494;7.546;2023-03-04T06:15:36;101639.59;;;9.15;64.48
40788;BME280;26497;52.494;7.546;2023-03-04T06:18:04;101634.53;;;9.25;64.02
40788;BME280;26497;52.494;7.546;2023-03-04T06:20:31;101639.84;;;9.28;64.07
40788;BME280;26497;52.494;7.546;2023-03-04T06:22:58;101639.78;;;9.23;64.64
40788;BME280;26497;52.494;7.546;2023-03-04T06:25:26;101640.91;;;9.36;64.05
40788;BME280;26497;52.494;7.546;2023-03-04T06:27:55;101641.03;;;9.42;64.05
40788;BME280;26497;52.494;7.546;2023-03-04T06:30:24;101644.66;;;9.49;63.83
40788;BME280;26497;52.494;7.546;2023-03-04T06:32:51;101651.34;;;9.78;63.21
40788;BME280;26497;52.494;7.546;2023-03-04T06:35:18;101648.78;;;9.81;62.70
40788;BME280;26497;52.494;7.546;2023-03-04T06:37:45;101652.28;;;9.80;62.64
40788;BME280;26497;52.494;7.546;2023-03-04T06:40:13;101652.38;;;9.86;62.63
40788;BME280;26497;52.494;7.546;2023-03-04T06:42:41;101648.66;;;9.74;63.12
40788;BME280;26497;52.494;7.546;2023-03-04T06:45:09;101657.53;;;9.80;63.07
40788;BME280;26497;52.494;7.546;2023-03-04T06:47:38;101659.16;;;9.73;63.13
40788;BME280;26497;52.494;7.546;2023-03-04T06:50:06;101662.22;;;9.49;64.10
40788;BME280;26497;52.494;7.546;2023-03-04T06:52:34;101666.56;;;9.47;64.45
40788;BME280;26497;52.494;7.546;2023-03-04T06:55:01;101668.47;;;9.54;64.59
40788;BME280;26497;52.494;7.546;2023-03-04T06:57:28;101662.41;;;9.59;64.45
40788;BME280;26497;52.494;7.546;2023-03-04T06:59:55;101670.41;;;9.64;64.32
40788;BME280;26497;52.494;7.546;2023-03-04T07:02:22;101668.81;;;9.72;64.30
40788;BME280;26497;52.494;7.546;2023-03-04T07:04:51;101663.56;;;9.72;64.34
40788;BME280;26497;52.494;7.546;2023-03-04T07:07:18;101671.34;;;9.66;65.01
40788;BME280;26497;52.494;7.546;2023-03-04T07:09:45;101673.34;;;9.80;65.29
40788;BME280;26497;52.494;7.546;2023-03-04T07:12:12;101680.34;;;9.79;65.62
40788;BME280;26497;52.494;7.546;2023-03-04T07:14:39;101679.25;;;9.66;66.60
40788;BME280;26497;52.494;7.546;2023-03-04T07:17:06;101672.31;;;9.71;67.19
40788;BME280;26497;52.494;7.546;2023-03-04T07:19:34;101676.59;;;9.66;67.60
40788;BME280;26497;52.494;7.546;2023-03-04T07:22:02;101667.00;;;9.68;68.50
40788;BME280;26497;52.494;7.546;2023-03-04T07:24:29;101675.19;;;9.84;68.52
40788;BME280;26497;52.494;7.546;2023-03-04T07:26:56;101670.59;;;9.73;69.32
40788;BME280;26497;52.494;7.546;2023-03-04T07:29:24;101675.97;;;9.80;69.28
40788;BME280;26497;52.494;7.546;2023-03-04T07:31:51;101673.28;;;9.77;69.92
40788;BME280;26497;52.494;7.546;2023-03-04T07:34:18;101680.41;;;9.82;69.87
40788;BME280;26497;52.494;7.546;2023-03-04T07:36:45;101680.47;;;9.84;70.19
40788;BME280;26497;52.494;7.546;2023-03-04T07:39:13;101675.94;;;9.77;70.49
40788;BME280;26497;52.494;7.546;2023-03-04T07:41:41;101680.09;;;9.67;71.14
40788;BME280;26497;52.494;7.546;2023-03-04T07:44:10;101674.16;;;9.77;70.81
40788;BME280;26497;52.494;7.546;2023-03-04T07:46:38;101679.31;;;9.69;71.09
40788;BME280;26497;52.494;7.546;2023-03-04T07:49:05;101670.56;;;9.72;71.45
40788;BME280;26497;52.494;7.546;2023-03-04T07:51:32;101673.47;;;9.86;71.51
40788;BME280;26497;52.494;7.546;2023-03-04T07:54:00;101669.00;;;9.83;71.44
40788;BME280;26497;52.494;7.546;2023-03-04T07:56:31;101667.34;;;9.88;72.11
40788;BME280;26497;52.494;7.546;2023-03-04T07:58:59;101668.41;;;9.98;72.13
40788;BME280;26497;52.494;7.546;2023-03-04T08:01:29;101664.63;;;10.35;71.72
40788;BME280;26497;52.494;7.546;2023-03-04T08:03:57;101665.72;;;10.44;71.29
40788;BME280;26497;52.494;7.546;2023-03-04T08:06:26;101666.13;;;10.71;69.80
40788;BME280;26497;52.494;7.546;2023-03-04T08:08:56;101666.38;;;10.89;68.84
40788;BME280;26497;52.494;7.546;2023-03-04T08:11:25;101670.75;;;10.89;68.15
40788;BME280;26497;52.494;7.546;2023-03-04T08:13:54;101674.97;;;10.76;68.16
40788;BME280;26497;52.494;7.546;2023-03-04T08:16:22;101666.41;;;10.91;68.13
40788;BME280;26497;52.494;7.546;2023-03-04T08:18:52;101676.63;;;10.68;68.72
40788;BME280;26497;52.494;7.546;2023-03-04T08:21:21;101674.03;;;10.71;68.63
40788;BME280;26497;52.494;7.546;2023-03-04T08:23:50;101667.84;;;10.69;68.83
40788;BME280;26497;52.494;7.546;2023-03-04T08:26:20;101680.31;;;10.79;69.39
40788;BME280;26497;52.494;7.546;2023-03-04T08:28:48;101672.72;;;11.01;68.80
40788;BME280;26497;52.494;7.546;2023-03-04T08:31:17;101676.34;;;11.09;68.47
40788;BME280;26497;52.494;7.546;2023-03-04T08:33:45;101675.78;;;11.35;68.58
40788;BME280;26497;52.494;7.546;2023-03-04T08:36:13;101671.53;;;11.48;67.75
40788;BME280;26497;52.494;7.546;2023-03-04T08:38:41;101676.03;;;11.55;67.82
40788;BME280;26497;52.494;7.546;2023-03-04T08:41:09;101668.81;;;11.43;68.13
40788;BME280;26497;52.494;7.546;2023-03-04T08:43:36;101672.38;;;11.44;68.54
40788;BME280;26497;52.494;7.546;2023-03-04T08:46:04;101673.50;;;11.64;68.37
40788;BME280;26497;52.494;7.546;2023-03-04T08:48:35;101663.03;;;11.75;67.17
40788;BME280;26497;52.494;7.546;2023-03-04T08:51:07;101661.28;;;11.77;66.81
40788;BME280;26497;52.494;7.546;2023-03-04T08:53:35;101661.25;;;12.70;67.70
40788;BME280;26497;52.494;7.546;2023-03-04T08:56:02;101667.06;;;13.94;63.48
40788;BME280;26497;52.494;7.546;2023-03-04T08:58:29;101661.78;;;14.45;58.81
40788;BME280;26497;52.494;7.546;2023-03-04T09:00:58;101659.13;;;14.78;56.72
40788;BME280;26497;52.494;7.546;2023-03-04T09:03:26;101657.34;;;14.74;55.87
40788;BME280;26497;52.494;7.546;2023-03-04T09:05:54;101667.97;;;14.41;55.58
40788;BME280;26497;52.494;7.546;2023-03-04T09:08:22;101668.88;;;14.20;56.13
40788;BME280;26497;52.494;7.546;2023-03-04T09:10:52;101667.75;;;13.36;57.78
40788;BME280;26497;52.494;7.546;2023-03-04T09:13:20;101667.56;;;12.94;58.85
40788;BME280;26497;52.494;7.546;2023-03-04T09:15:50;101663.16;;;12.93;59.36
40788;BME280;26497;52.494;7.546;2023-03-04T09:18:20;101680.66;;;12.72;61.44
40788;BME280;26497;52.494;7.546;2023-03-04T09:20:49;101676.41;;;13.01;61.04
40788;BME280;26497;52.494;7.546;2023-03-04T09:23:18;101676.53;;;13.25;60.20
40788;BME280;26497;52.494;7.546;2023-03-04T09:25:46;101674.84;;;13.37;60.37
40788;BME280;26497;52.494;7.546;2023-03-04T09:28:15;101679.44;;;13.88;58.77
40788;BME280;26497;52.494;7.546;2023-03-04T09:30:43;101678.56;;;13.99;57.34
40788;BME280;26497;52.494;7.546;2023-03-04T09:33:10;101680.31;;;13.93;57.01
40788;BME280;26497;52.494;7.546;2023-03-04T09:35:38;101684.78;;;14.17;56.47
40788;BME280;26497;52.494;7.546;2023-03-04T09:38:05;101683.00;;;14.13;56.18
40788;BME280;26497;52.494;7.546;2023-03-04T09:40:40;101678.59;;;14.18;56.43
40788;BME280;26497;52.494;7.546;2023-03-04T09:43:16;101679.44;;;13.97;56.91
40788;BME280;26497;52.494;7.546;2023-03-04T09:45:48;101668.84;;;13.98;56.42
40788;BME280;26497;52.494;7.546;2023-03-04T09:48:21;101668.88;;;14.34;56.61
40788;BME280;26497;52.494;7.546;2023-03-04T09:51:01;101667.09;;;14.47;54.89
40788;BME280;26497;52.494;7.546;2023-03-04T09:53:39;101668.00;;;14.55;53.42
40788;BME280;26497;52.494;7.546;2023-03-04T09:56:12;101672.41;;;14.38;54.75
40788;BME280;26497;52.494;7.546;2023-03-04T09:58:49;101670.63;;;14.09;55.32
40788;BME280;26497;52.494;7.546;2023-03-04T10:01:23;101669.72;;;14.08;56.05
40788;BME280;26497;52.494;7.546;2023-03-04T10:03:56;101667.97;;;14.32;54.47
40788;BME280;26497;52.494;7.546;2023-03-04T10:06:24;101673.28;;;14.29;54.28
40788;BME280;26497;52.494;7.546;2023-03-04T10:08:55;101665.31;;;14.23;53.68
40788;BME280;26497;52.494;7.546;2023-03-04T10:11:31;101666.22;;;14.28;53.68
40788;BME280;26497;52.494;7.546;2023-03-04T10:14:10;101671.53;;;14.40;53.21
40788;BME280;26497;52.494;7.546;2023-03-04T10:16:45;101660.00;;;14.76;52.72
40788;BME280;26497;52.494;7.546;2023-03-04T10:19:27;101657.03;;;15.59;51.95
40788;BME280;26497;52.494;7.546;2023-03-04T10:21:55;101654.28;;;16.86;48.50
40788;BME280;26497;52.494;7.546;2023-03-04T10:24:27;101653.44;;;18.18;44.07
40788;BME280;26497;52.494;7.546;2023-03-04T10:27:01;101651.06;;;17.34;43.48
40788;BME280;26497;52.494;7.546;2023-03-04T10:29:32;101652.69;;;16.66;44.27
40788;BME280;26497;52.494;7.546;2023-03-04T10:31:59;101657.34;;;16.44;43.19
40788;BME280;26497;52.494;7.546;2023-03-04T10:34:26;101650.69;;;15.91;44.69
40788;BME280;26497;52.494;7.546;2023-03-04T10:36:58;101657.16;;;15.34;44.94
40788;BME280;26497;52.494;7.546;2023-03-04T10:39:28;101659.97;;;14.97;45.45
40788;BME280;26497;52.494;7.546;2023-03-04T10:42:00;101661.78;;;14.49;46.42
40788;BME280;26497;52.494;7.546;2023-03-04T10:44:29;101663.53;;;13.91;46.36
40788;BME280;26497;52.494;7.546;2023-03-04T10:46:57;101666.16;;;13.80;47.44
40788;BME280;26497;52.494;7.546;2023-03-04T10:49:26;101656.44;;;13.71;48.64
40788;BME280;26497;52.494;7.546;2023-03-04T10:52:02;101660.81;;;13.63;48.17
40788;BME280;26497;52.494;7.546;2023-03-04T10:54:32;101662.56;;;13.54;49.33
40788;BME280;26497;52.494;7.546;2023-03-04T10:57:05;101660.72;;;13.38;50.35
40788;BME280;26497;52.494;7.546;2023-03-04T10:59:47;101657.22;;;13.45;51.39
40788;BME280;26497;52.494;7.546;2023-03-04T11:02:21;101641.41;;;13.70;50.98
40788;BME280;26497;52.494;7.546;2023-03-04T11:04:52;101651.19;;;14.10;49.03
40788;BME280;26497;52.494;7.546;2023-03-04T11:07:20;101639.69;;;14.28;49.19
40788;BME280;26497;52.494;7.546;2023-03-04T11:09:48;101640.56;;;14.25;48.30
40788;BME280;26497;52.494;7.546;2023-03-04T11:12:30;101640.56;;;14.13;48.21
40788;BME280;26497;52.494;7.546;2023-03-04T11:14:58;101644.09;;;14.20;47.74
40788;BME280;26497;52.494;7.546;2023-03-04T11:17:28;101646.75;;;14.26;47.52
40788;BME280;26497;52.494;7.546;2023-03-04T11:20:30;101648.53;;;14.32;47.98
40788;BME280;26497;52.494;7.546;2023-03-04T11:23:03;101652.03;;;14.04;48.10
40788;BME280;26497;52.494;7.546;2023-03-04T11:25:34;101647.66;;;14.17;48.20
40788;BME280;26497;52.494;7.546;2023-03-04T11:28:11;101638.81;;;14.09;47.82
40788;BME280;26497;52.494;7.546;2023-03-04T11:30:43;101640.56;;;13.94;47.76
40788;BME280;26497;52.494;7.546;2023-03-04T11:33:21;101631.72;;;14.08;46.87
40788;BME280;26497;52.494;7.546;2023-03-04T11:36:06;101628.19;;;13.99;46.76
40788;BME280;26497;52.494;7.546;2023-03-04T11:38:40;101636.16;;;14.30;46.71
40788;BME280;26497;52.494;7.546;2023-03-04T11:41:13;101636.13;;;14.29;45.76
40788;BME280;26497;52.494;7.546;2023-03-04T11:43:46;101634.38;;;14.48;45.10
40788;BME280;26497;52.494;7.546;2023-03-04T11:46:57;101621.94;;;14.83;45.44
40788;BME280;26497;52.494;7.546;2023-03-04T11:49:51;101619.28;;;14.64;44.99
40788;BME280;26497;52.494;7.546;2023-03-04T11:52:36;101629.69;;;15.37;43.26
40788;BME280;26497;52.494;7.546;2023-03-04T11:55:24;101615.19;;;15.94;44.01
40788;BME280;26497;52.494;7.546;2023-03-04T11:58:06;101611.38;;;16.28;40.56
40788;BME280;26497;52.494;7.546;2023-03-04T12:00:40;101611.31;;;16.34;40.37
40788;BME280;26497;52.494;7.546;2023-03-04T12:06:11;101605.56;;;15.70;41.59
40788;BME280;26497;52.494;7.546;2023-03-04T12:09:07;101599.63;;;15.26;42.48
40788;BME280;26497;52.494;7.546;2023-03-04T12:11:49;101605.03;;;15.12;42.87
40788;BME280;26497;52.494;7.546;2023-03-04T12:14:28;101605.97;;;14.95;44.22
40788;BME280;26497;52.494;7.546;2023-03-04T12:20:34;101603.41;;;14.41;46.02
40788;BME280;26497;52.494;7.546;2023-03-04T12:23:22;101601.66;;;14.16;46.56
40788;BME280;26497;52.494;7.546;2023-03-04T12:25:59;101603.44;;;14.25;45.29
40788;BME280;26497;52.494;7.546;2023-03-04T12:28:50;101608.72;;;14.50;44.15
40788;BME280;26497;52.494;7.546;2023-03-04T12:31:32;101599.81;;;14.68;43.71
40788;BME280;26497;52.494;7.546;2023-03-04T12:37:47;101589.97;;;15.11;42.24
40788;BME280;26497;52.494;7.546;2023-03-04T12:40:40;101585.41;;;15.33;42.11
40788;BME280;26497;52.494;7.546;2023-03-04T12:43:34;101583.31;;;15.89;39.73
40788;BME280;26497;52.494;7.546;2023-03-04T12:46:19;101584.91;;;16.12;39.81
40788;BME280;26497;52.494;7.546;2023-03-04T12:49:11;101569.56;;;16.38;40.03
40788;BME280;26497;52.494;7.546;2023-03-04T12:51:45;101565.19;;;17.12;38.41
40788;BME280;26497;52.494;7.546;2023-03-04T12:54:24;101574.56;;;17.41;37.66
40788;BME280;26497;52.494;7.546;2023-03-04T12:56:59;101572.22;;;16.39;38.06
40788;BME280;26497;52.494;7.546;2023-03-04T12:59:33;101567.38;;;15.85;39.33
40788;BME280;26497;52.494;7.546;2023-03-04T13:02:26;101568.78;;;14.95;41.73
40788;BME280;26497;52.494;7.546;2023-03-04T13:05:15;101567.91;;;14.85;40.98
40788;BME280;26497;52.494;7.546;2023-03-04T13:07:54;101558.84;;;15.33;40.92
40788;BME280;26497;52.494;7.546;2023-03-04T13:10:22;101559.63;;;15.46;41.23
40788;BME280;26497;52.494;7.546;2023-03-04T13:12:52;101548.88;;;15.65;41.08
40788;BME280;26497;52.494;7.546;2023-03-04T13:15:34;101562.91;;;15.85;40.41
40788;BME280;26497;52.494;7.546;2023-03-04T13:21:16;101551.78;;;15.29;39.16
40788;BME280;26497;52.494;7.546;2023-03-04T13:23:47;101562.50;;;15.15;39.63